Tupper Lake, New York
Current Conditions -  °F | °C
As of 4:51 PM on Tuesday 25 Nov 2014 (Local Time) from KSLK Reporting Station
Overcast Overcast  
Wind Chill: 31°   Ceiling: 5000
Heat Index: 37°   Visibility: 10mi
Dew Point: 25°   Wind: 8mph
Humidity: 62%   Direction: 230°SW
Pressure: 29.87"   Gusts: NA
Location:  44.22°N, 74.46°W
Report Text: KSLK 252151Z AUTO 23007KT 10SM SCT040 OVC050 03/M04 A2987 RMK AO2 SNE2056 SLP128 P0000 T00281039
Loading
Personal Weather Stations






























Interactive Weather Map New forecast layout! Learn more

10-Day Weather Forecast

Advertisements
Track Severe Weather on mobile